Terminal Aerodrome Forecast
Issued by NWS

Home | Current Version | Previous Version | Text Only | Print | Product List | Glossary On
Versions: 1 2 3 4 5 6 7 8 9 10 11 12 13
000
FTUS43 KJKL 232322
TAFSJS
TAF
KSJS 232322Z 2400/2424 11010G17KT P6SM BKN070 WS020/13035KT
     FM240200 10008KT P6SM OVC070 WS020/13040KT
     FM241300 11006KT 6SM -SHRA BR OVC040
     FM241700 09005KT 6SM -SHRA OVC025
     FM242200 VRB03KT P6SM -SHRA OVC020=

USA.gov is the U.S. government's official web portal to all federal, state and local government web resources and services.